sensor_id;sensor_type;location;lat;lon;timestamp;P1;durP1;ratioP1;P2;durP2;ratioP2
12222;SDS011;6174;49.058;8.524;2023-08-12T06:26:37;5.03;;;4.63;;
12222;SDS011;6174;49.058;8.524;2023-08-12T06:29:04;5.27;;;4.87;;
12222;SDS011;6174;49.058;8.524;2023-08-12T06:31:31;6.83;;;5.13;;
12222;SDS011;6174;49.058;8.524;2023-08-12T06:33:57;5.53;;;5.03;;
12222;SDS011;6174;49.058;8.524;2023-08-12T06:36:24;5.40;;;5.00;;
12222;SDS011;6174;49.058;8.524;2023-08-12T06:38:51;5.00;;;4.50;;
12222;SDS011;6174;49.058;8.524;2023-08-12T06:41:18;5.03;;;4.55;;
12222;SDS011;6174;49.058;8.524;2023-08-12T06:43:46;6.95;;;4.53;;
12222;SDS011;6174;49.058;8.524;2023-08-12T06:46:13;6.13;;;4.57;;
12222;SDS011;6174;49.058;8.524;2023-08-12T06:48:40;4.63;;;4.22;;
12222;SDS011;6174;49.058;8.524;2023-08-12T06:51:06;4.82;;;4.38;;
12222;SDS011;6174;49.058;8.524;2023-08-12T06:53:36;4.53;;;4.13;;
12222;SDS011;6174;49.058;8.524;2023-08-12T06:56:04;5.13;;;4.57;;
12222;SDS011;6174;49.058;8.524;2023-08-12T06:58:31;4.75;;;4.03;;
12222;SDS011;6174;49.058;8.524;2023-08-12T07:00:59;4.50;;;4.10;;
12222;SDS011;6174;49.058;8.524;2023-08-12T07:03:26;4.63;;;4.20;;
12222;SDS011;6174;49.058;8.524;2023-08-12T07:05:53;5.32;;;4.82;;
12222;SDS011;6174;49.058;8.524;2023-08-12T07:08:20;6.03;;;4.68;;
12222;SDS011;6174;49.058;8.524;2023-08-12T07:10:47;5.53;;;4.32;;
12222;SDS011;6174;49.058;8.524;2023-08-12T07:13:14;5.10;;;4.70;;
12222;SDS011;6174;49.058;8.524;2023-08-12T07:15:41;4.80;;;4.40;;
12222;SDS011;6174;49.058;8.524;2023-08-12T07:18:09;5.10;;;4.70;;
12222;SDS011;6174;49.058;8.524;2023-08-12T07:20:36;5.00;;;4.60;;
12222;SDS011;6174;49.058;8.524;2023-08-12T07:23:03;4.65;;;4.22;;
12222;SDS011;6174;49.058;8.524;2023-08-12T07:25:30;5.25;;;4.78;;
12222;SDS011;6174;49.058;8.524;2023-08-12T07:27:57;4.40;;;4.10;;
12222;SDS011;6174;49.058;8.524;2023-08-12T07:30:24;4.75;;;4.45;;
12222;SDS011;6174;49.058;8.524;2023-08-12T07:32:51;4.10;;;3.80;;
12222;SDS011;6174;49.058;8.524;2023-08-12T07:35:20;5.85;;;4.68;;
12222;SDS011;6174;49.058;8.524;2023-08-12T07:37:47;4.90;;;4.50;;
12222;SDS011;6174;49.058;8.524;2023-08-12T07:40:13;4.78;;;4.32;;
12222;SDS011;6174;49.058;8.524;2023-08-12T07:42:40;5.80;;;4.60;;
12222;SDS011;6174;49.058;8.524;2023-08-12T07:45:08;5.30;;;4.47;;
12222;SDS011;6174;49.058;8.524;2023-08-12T07:47:35;4.90;;;4.50;;
12222;SDS011;6174;49.058;8.524;2023-08-12T07:50:02;8.43;;;4.43;;
12222;SDS011;6174;49.058;8.524;2023-08-12T07:52:31;7.75;;;4.95;;
12222;SDS011;6174;49.058;8.524;2023-08-12T07:54:57;5.05;;;4.65;;
12222;SDS011;6174;49.058;8.524;2023-08-12T07:57:24;6.25;;;5.00;;
12222;SDS011;6174;49.058;8.524;2023-08-12T07:59:51;4.95;;;4.45;;
12222;SDS011;6174;49.058;8.524;2023-08-12T08:02:18;5.38;;;4.90;;
12222;SDS011;6174;49.058;8.524;2023-08-12T08:04:45;6.00;;;4.80;;
12222;SDS011;6174;49.058;8.524;2023-08-12T08:07:14;5.55;;;5.05;;
12222;SDS011;6174;49.058;8.524;2023-08-12T08:09:42;5.00;;;4.57;;
12222;SDS011;6174;49.058;8.524;2023-08-12T08:12:09;5.22;;;4.82;;
12222;SDS011;6174;49.058;8.524;2023-08-12T08:14:37;5.22;;;4.72;;
12222;SDS011;6174;49.058;8.524;2023-08-12T08:17:03;4.68;;;4.28;;
12222;SDS011;6174;49.058;8.524;2023-08-12T08:19:30;5.18;;;4.78;;
12222;SDS011;6174;49.058;8.524;2023-08-12T08:21:58;5.78;;;4.80;;
12222;SDS011;6174;49.058;8.524;2023-08-12T08:24:24;5.40;;;4.90;;
12222;SDS011;6174;49.058;8.524;2023-08-12T08:26:53;5.85;;;4.45;;
12222;SDS011;6174;49.058;8.524;2023-08-12T08:29:21;5.18;;;4.68;;
12222;SDS011;6174;49.058;8.524;2023-08-12T08:31:47;5.10;;;4.60;;
12222;SDS011;6174;49.058;8.524;2023-08-12T08:34:14;5.32;;;4.80;;
12222;SDS011;6174;49.058;8.524;2023-08-12T08:36:41;5.22;;;4.60;;
12222;SDS011;6174;49.058;8.524;2023-08-12T08:39:08;5.30;;;4.80;;
12222;SDS011;6174;49.058;8.524;2023-08-12T08:41:36;5.53;;;5.07;;
12222;SDS011;6174;49.058;8.524;2023-08-12T08:44:07;5.07;;;4.50;;
12222;SDS011;6174;49.058;8.524;2023-08-12T08:46:34;5.35;;;4.85;;
12222;SDS011;6174;49.058;8.524;2023-08-12T08:49:02;5.15;;;4.65;;
12222;SDS011;6174;49.058;8.524;2023-08-12T08:51:31;6.38;;;5.00;;
12222;SDS011;6174;49.058;8.524;2023-08-12T08:53:58;4.50;;;4.20;;
12222;SDS011;6174;49.058;8.524;2023-08-12T08:56:25;5.93;;;4.75;;
12222;SDS011;6174;49.058;8.524;2023-08-12T08:58:53;5.18;;;4.63;;
12222;SDS011;6174;49.058;8.524;2023-08-12T09:01:21;6.30;;;4.82;;
12222;SDS011;6174;49.058;8.524;2023-08-12T09:03:49;6.40;;;4.72;;
12222;SDS011;6174;49.058;8.524;2023-08-12T09:06:18;5.68;;;4.97;;
12222;SDS011;6174;49.058;8.524;2023-08-12T09:08:48;6.47;;;4.85;;
12222;SDS011;6174;49.058;8.524;2023-08-12T09:11:17;5.15;;;4.75;;
12222;SDS011;6174;49.058;8.524;2023-08-12T09:13:45;6.57;;;4.38;;
12222;SDS011;6174;49.058;8.524;2023-08-12T09:16:12;6.53;;;4.60;;
12222;SDS011;6174;49.058;8.524;2023-08-12T09:18:41;5.68;;;4.90;;
12222;SDS011;6174;49.058;8.524;2023-08-12T09:21:09;6.15;;;4.70;;
12222;SDS011;6174;49.058;8.524;2023-08-12T09:23:37;5.57;;;4.28;;
12222;SDS011;6174;49.058;8.524;2023-08-12T09:26:10;4.90;;;4.50;;
12222;SDS011;6174;49.058;8.524;2023-08-12T09:28:39;4.75;;;4.35;;
12222;SDS011;6174;49.058;8.524;2023-08-12T09:31:06;5.10;;;4.07;;
12222;SDS011;6174;49.058;8.524;2023-08-12T09:33:38;4.82;;;4.30;;
12222;SDS011;6174;49.058;8.524;2023-08-12T09:36:06;4.25;;;3.90;;
12222;SDS011;6174;49.058;8.524;2023-08-12T09:38:33;4.88;;;4.38;;
12222;SDS011;6174;49.058;8.524;2023-08-12T09:41:00;4.70;;;4.20;;
12222;SDS011;6174;49.058;8.524;2023-08-12T09:43:28;4.60;;;4.20;;
12222;SDS011;6174;49.058;8.524;2023-08-12T09:45:55;4.55;;;4.10;;
12222;SDS011;6174;49.058;8.524;2023-08-12T09:48:24;4.80;;;4.40;;
12222;SDS011;6174;49.058;8.524;2023-08-12T09:50:51;4.80;;;4.28;;
12222;SDS011;6174;49.058;8.524;2023-08-12T09:53:20;4.70;;;4.20;;
12222;SDS011;6174;49.058;8.524;2023-08-12T09:55:48;5.55;;;4.63;;
12222;SDS011;6174;49.058;8.524;2023-08-12T09:58:18;4.30;;;4.00;;
12222;SDS011;6174;49.058;8.524;2023-08-12T10:00:49;4.38;;;4.05;;
12222;SDS011;6174;49.058;8.524;2023-08-12T10:03:17;4.75;;;4.20;;
12222;SDS011;6174;49.058;8.524;2023-08-12T10:05:46;4.78;;;4.28;;
12222;SDS011;6174;49.058;8.524;2023-08-12T10:08:13;4.95;;;4.60;;
12222;SDS011;6174;49.058;8.524;2023-08-12T10:10:42;5.00;;;4.60;;
12222;SDS011;6174;49.058;8.524;2023-08-12T10:13:09;5.38;;;4.85;;
12222;SDS011;6174;49.058;8.524;2023-08-12T10:15:37;5.07;;;4.50;;
12222;SDS011;6174;49.058;8.524;2023-08-12T10:18:05;4.90;;;4.50;;
12222;SDS011;6174;49.058;8.524;2023-08-12T10:20:32;4.43;;;4.13;;
12222;SDS011;6174;49.058;8.524;2023-08-12T10:23:01;4.90;;;4.50;;
12222;SDS011;6174;49.058;8.524;2023-08-12T10:25:31;4.90;;;4.40;;
12222;SDS011;6174;49.058;8.524;2023-08-12T10:28:00;5.20;;;4.70;;
12222;SDS011;6174;49.058;8.524;2023-08-12T10:30:28;5.22;;;4.25;;
12222;SDS011;6174;49.058;8.524;2023-08-12T10:32:56;4.88;;;4.25;;
12222;SDS011;6174;49.058;8.524;2023-08-12T10:35:30;4.20;;;3.80;;
12222;SDS011;6174;49.058;8.524;2023-08-12T10:38:07;4.72;;;4.20;;
12222;SDS011;6174;49.058;8.524;2023-08-12T10:40:34;4.15;;;3.75;;
12222;SDS011;6174;49.058;8.524;2023-08-12T10:43:02;5.75;;;3.67;;
12222;SDS011;6174;49.058;8.524;2023-08-12T10:45:40;3.95;;;3.65;;
12222;SDS011;6174;49.058;8.524;2023-08-12T10:48:16;4.18;;;3.53;;
12222;SDS011;6174;49.058;8.524;2023-08-12T10:50:44;4.05;;;3.65;;
12222;SDS011;6174;49.058;8.524;2023-08-12T10:53:20;6.63;;;3.97;;
12222;SDS011;6174;49.058;8.524;2023-08-12T10:55:49;4.72;;;4.28;;
12222;SDS011;6174;49.058;8.524;2023-08-12T10:58:25;4.30;;;4.00;;
12222;SDS011;6174;49.058;8.524;2023-08-12T11:00:53;5.93;;;4.10;;
12222;SDS011;6174;49.058;8.524;2023-08-12T11:03:21;4.68;;;4.25;;
12222;SDS011;6174;49.058;8.524;2023-08-12T11:05:47;5.07;;;4.20;;
12222;SDS011;6174;49.058;8.524;2023-08-12T11:08:15;4.68;;;4.03;;
12222;SDS011;6174;49.058;8.524;2023-08-12T11:10:43;6.50;;;4.47;;
12222;SDS011;6174;49.058;8.524;2023-08-12T11:13:10;6.15;;;4.43;;
12222;SDS011;6174;49.058;8.524;2023-08-12T11:15:40;4.50;;;4.10;;
12222;SDS011;6174;49.058;8.524;2023-08-12T11:18:08;5.03;;;4.10;;
12222;SDS011;6174;49.058;8.524;2023-08-12T11:20:36;4.47;;;4.10;;
12222;SDS011;6174;49.058;8.524;2023-08-12T11:23:04;4.30;;;3.90;;
12222;SDS011;6174;49.058;8.524;2023-08-12T11:25:32;4.80;;;4.30;;
12222;SDS011;6174;49.058;8.524;2023-08-12T11:28:00;5.53;;;4.72;;
12222;SDS011;6174;49.058;8.524;2023-08-12T11:30:27;5.07;;;4.57;;
12222;SDS011;6174;49.058;8.524;2023-08-12T11:32:56;5.45;;;5.03;;
12222;SDS011;6174;49.058;8.524;2023-08-12T11:35:24;5.45;;;4.80;;
12222;SDS011;6174;49.058;8.524;2023-08-12T11:37:52;6.10;;;5.20;;
12222;SDS011;6174;49.058;8.524;2023-08-12T11:40:21;5.68;;;5.18;;
12222;SDS011;6174;49.058;8.524;2023-08-12T11:42:49;5.30;;;4.78;;
12222;SDS011;6174;49.058;8.524;2023-08-12T11:45:17;5.78;;;4.93;;
12222;SDS011;6174;49.058;8.524;2023-08-12T11:47:45;4.90;;;4.50;;
12222;SDS011;6174;49.058;8.524;2023-08-12T11:50:19;5.45;;;4.95;;
12222;SDS011;6174;49.058;8.524;2023-08-12T11:52:47;5.40;;;4.93;;
12222;SDS011;6174;49.058;8.524;2023-08-12T11:55:15;7.28;;;4.30;;
12222;SDS011;6174;49.058;8.524;2023-08-12T11:57:42;4.88;;;4.43;;
12222;SDS011;6174;49.058;8.524;2023-08-12T12:00:10;4.30;;;4.00;;
12222;SDS011;6174;49.058;8.524;2023-08-12T12:02:40;4.80;;;4.40;;
12222;SDS011;6174;49.058;8.524;2023-08-12T12:05:11;4.80;;;4.40;;
12222;SDS011;6174;49.058;8.524;2023-08-12T12:07:40;5.53;;;4.70;;
12222;SDS011;6174;49.058;8.524;2023-08-12T12:10:12;5.75;;;5.13;;
12222;SDS011;6174;49.058;8.524;2023-08-12T12:12:40;5.15;;;4.78;;
12222;SDS011;6174;49.058;8.524;2023-08-12T12:15:07;6.15;;;5.65;;
12222;SDS011;6174;49.058;8.524;2023-08-12T12:17:38;5.57;;;5.07;;
12222;SDS011;6174;49.058;8.524;2023-08-12T12:20:06;5.25;;;4.85;;
12222;SDS011;6174;49.058;8.524;2023-08-12T12:22:36;5.50;;;4.95;;
12222;SDS011;6174;49.058;8.524;2023-08-12T12:25:06;5.32;;;4.93;;
12222;SDS011;6174;49.058;8.524;2023-08-12T12:27:35;4.97;;;4.50;;
12222;SDS011;6174;49.058;8.524;2023-08-12T12:30:05;5.15;;;4.47;;
12222;SDS011;6174;49.058;8.524;2023-08-12T12:32:34;4.95;;;4.55;;
12222;SDS011;6174;49.058;8.524;2023-08-12T12:35:01;4.88;;;4.43;;
12222;SDS011;6174;49.058;8.524;2023-08-12T12:37:28;4.80;;;4.40;;
12222;SDS011;6174;49.058;8.524;2023-08-12T12:39:55;4.60;;;4.28;;
12222;SDS011;6174;49.058;8.524;2023-08-12T12:42:24;4.57;;;4.18;;
12222;SDS011;6174;49.058;8.524;2023-08-12T12:44:51;4.40;;;4.00;;
12222;SDS011;6174;49.058;8.524;2023-08-12T12:47:18;3.60;;;3.40;;
12222;SDS011;6174;49.058;8.524;2023-08-12T12:49:46;3.85;;;3.38;;
12222;SDS011;6174;49.058;8.524;2023-08-12T12:52:13;4.00;;;3.60;;
12222;SDS011;6174;49.058;8.524;2023-08-12T12:54:39;3.85;;;3.50;;
12222;SDS011;6174;49.058;8.524;2023-08-12T12:57:06;3.67;;;3.28;;
12222;SDS011;6174;49.058;8.524;2023-08-12T12:59:34;4.15;;;3.38;;
12222;SDS011;6174;49.058;8.524;2023-08-12T13:02:01;4.40;;;4.00;;
12222;SDS011;6174;49.058;8.524;2023-08-12T13:04:28;4.15;;;3.63;;
12222;SDS011;6174;49.058;8.524;2023-08-12T13:06:55;4.70;;;3.72;;
12222;SDS011;6174;49.058;8.524;2023-08-12T13:09:22;4.38;;;3.97;;
12222;SDS011;6174;49.058;8.524;2023-08-12T13:11:48;4.28;;;3.88;;
12222;SDS011;6174;49.058;8.524;2023-08-12T13:14:15;4.32;;;3.65;;
12222;SDS011;6174;49.058;8.524;2023-08-12T13:16:46;4.35;;;3.95;;
12222;SDS011;6174;49.058;8.524;2023-08-12T13:19:12;4.13;;;3.72;;
12222;SDS011;6174;49.058;8.524;2023-08-12T13:21:39;4.22;;;3.92;;
12222;SDS011;6174;49.058;8.524;2023-08-12T13:24:06;3.75;;;3.45;;
12222;SDS011;6174;49.058;8.524;2023-08-12T13:26:33;5.32;;;4.53;;
12222;SDS011;6174;49.058;8.524;2023-08-12T13:28:59;4.10;;;3.80;;
12222;SDS011;6174;49.058;8.524;2023-08-12T13:31:26;4.38;;;3.97;;
12222;SDS011;6174;49.058;8.524;2023-08-12T13:33:54;4.43;;;4.13;;
12222;SDS011;6174;49.058;8.524;2023-08-12T13:36:21;5.28;;;3.80;;
12222;SDS011;6174;49.058;8.524;2023-08-12T13:38:48;3.75;;;3.45;;
12222;SDS011;6174;49.058;8.524;2023-08-12T13:41:15;3.72;;;3.45;;
12222;SDS011;6174;49.058;8.524;2023-08-12T13:43:42;3.80;;;3.50;;
12222;SDS011;6174;49.058;8.524;2023-08-12T13:46:09;4.43;;;3.63;;
12222;SDS011;6174;49.058;8.524;2023-08-12T13:48:35;6.13;;;3.70;;
12222;SDS011;6174;49.058;8.524;2023-08-12T13:51:04;3.65;;;3.38;;
12222;SDS011;6174;49.058;8.524;2023-08-12T13:53:31;3.85;;;3.53;;
12222;SDS011;6174;49.058;8.524;2023-08-12T13:55:58;3.83;;;3.53;;
12222;SDS011;6174;49.058;8.524;2023-08-12T13:58:24;3.75;;;3.10;;
12222;SDS011;6174;49.058;8.524;2023-08-12T14:00:51;3.58;;;3.28;;
12222;SDS011;6174;49.058;8.524;2023-08-12T14:03:18;3.45;;;3.25;;
12222;SDS011;6174;49.058;8.524;2023-08-12T14:05:44;3.80;;;3.30;;
12222;SDS011;6174;49.058;8.524;2023-08-12T14:08:13;3.80;;;3.40;;
12222;SDS011;6174;49.058;8.524;2023-08-12T14:10:40;4.20;;;3.90;;
12222;SDS011;6174;49.058;8.524;2023-08-12T14:13:07;3.70;;;3.38;;
12222;SDS011;6174;49.058;8.524;2023-08-12T14:15:35;3.75;;;3.45;;
12222;SDS011;6174;49.058;8.524;2023-08-12T14:18:02;4.38;;;3.60;;
12222;SDS011;6174;49.058;8.524;2023-08-12T14:20:29;3.80;;;3.50;;
12222;SDS011;6174;49.058;8.524;2023-08-12T14:22:56;4.07;;;3.70;;
12222;SDS011;6174;49.058;8.524;2023-08-12T14:25:25;4.20;;;3.80;;
12222;SDS011;6174;49.058;8.524;2023-08-12T14:27:52;4.85;;;3.78;;
12222;SDS011;6174;49.058;8.524;2023-08-12T14:30:19;3.90;;;3.60;;
12222;SDS011;6174;49.058;8.524;2023-08-12T14:32:50;4.65;;;4.22;;
12222;SDS011;6174;49.058;8.524;2023-08-12T14:35:17;4.22;;;3.83;;
12222;SDS011;6174;49.058;8.524;2023-08-12T14:37:44;4.70;;;4.20;;
12222;SDS011;6174;49.058;8.524;2023-08-12T14:40:11;10.65;;;9.15;;
12222;SDS011;6174;49.058;8.524;2023-08-12T14:42:39;9.23;;;8.23;;
12222;SDS011;6174;49.058;8.524;2023-08-12T14:45:06;11.43;;;9.90;;
12222;SDS011;6174;49.058;8.524;2023-08-12T14:47:34;9.00;;;6.28;;
12222;SDS011;6174;49.058;8.524;2023-08-12T14:50:01;6.45;;;5.65;;
12222;SDS011;6174;49.058;8.524;2023-08-12T14:53:32;5.68;;;5.18;;
12222;SDS011;6174;49.058;8.524;2023-08-12T14:55:43;6.70;;;5.35;;
12222;SDS011;6174;49.058;8.524;2023-08-12T14:59:09;5.53;;;5.13;;
12222;SDS011;6174;49.058;8.524;2023-08-12T15:01:48;6.03;;;5.43;;
12222;SDS011;6174;49.058;8.524;2023-08-12T15:04:15;6.53;;;5.72;;
12222;SDS011;6174;49.058;8.524;2023-08-12T15:06:42;6.85;;;6.10;;
12222;SDS011;6174;49.058;8.524;2023-08-12T15:09:12;5.70;;;5.20;;
12222;SDS011;6174;49.058;8.524;2023-08-12T15:11:44;6.10;;;5.60;;
12222;SDS011;6174;49.058;8.524;2023-08-12T15:14:13;5.93;;;5.32;;
12222;SDS011;6174;49.058;8.524;2023-08-12T15:16:40;7.05;;;5.88;;
12222;SDS011;6174;49.058;8.524;2023-08-12T15:19:06;7.75;;;6.93;;
12222;SDS011;6174;49.058;8.524;2023-08-12T15:21:33;6.25;;;5.75;;
12222;SDS011;6174;49.058;8.524;2023-08-12T15:24:00;8.77;;;6.65;;
12222;SDS011;6174;49.058;8.524;2023-08-12T15:26:27;7.47;;;6.78;;
12222;SDS011;6174;49.058;8.524;2023-08-12T15:28:54;8.23;;;7.40;;
12222;SDS011;6174;49.058;8.524;2023-08-12T15:31:22;7.35;;;6.68;;
12222;SDS011;6174;49.058;8.524;2023-08-12T15:33:49;8.93;;;7.78;;
12222;SDS011;6174;49.058;8.524;2023-08-12T15:36:16;9.05;;;6.80;;
12222;SDS011;6174;49.058;8.524;2023-08-12T15:38:42;8.65;;;7.32;;
12222;SDS011;6174;49.058;8.524;2023-08-12T15:41:13;7.65;;;6.75;;
12222;SDS011;6174;49.058;8.524;2023-08-12T15:43:40;7.68;;;6.80;;
12222;SDS011;6174;49.058;8.524;2023-08-12T15:46:11;7.00;;;6.20;;
12222;SDS011;6174;49.058;8.524;2023-08-12T15:48:39;6.70;;;6.10;;
12222;SDS011;6174;49.058;8.524;2023-08-12T15:51:07;7.30;;;6.55;;
12222;SDS011;6174;49.058;8.524;2023-08-12T15:53:34;7.10;;;6.50;;
12222;SDS011;6174;49.058;8.524;2023-08-12T15:56:01;7.57;;;6.00;;
12222;SDS011;6174;49.058;8.524;2023-08-12T15:58:28;6.63;;;6.10;;
12222;SDS011;6174;49.058;8.524;2023-08-12T16:00:55;6.85;;;6.25;;
12222;SDS011;6174;49.058;8.524;2023-08-12T16:03:22;6.65;;;6.03;;
12222;SDS011;6174;49.058;8.524;2023-08-12T16:05:51;6.55;;;5.95;;
12222;SDS011;6174;49.058;8.524;2023-08-12T16:08:23;6.60;;;6.00;;
12222;SDS011;6174;49.058;8.524;2023-08-12T16:10:50;6.07;;;5.47;;
12222;SDS011;6174;49.058;8.524;2023-08-12T16:13:17;6.60;;;6.00;;
12222;SDS011;6174;49.058;8.524;2023-08-12T16:15:43;5.95;;;5.40;;
12222;SDS011;6174;49.058;8.524;2023-08-12T16:18:10;7.10;;;5.50;;
12222;SDS011;6174;49.058;8.524;2023-08-12T16:20:37;6.57;;;6.03;;
12222;SDS011;6174;49.058;8.524;2023-08-12T16:23:05;6.07;;;5.47;;
12222;SDS011;6174;49.058;8.524;2023-08-12T16:25:32;6.68;;;6.07;;
12222;SDS011;6174;49.058;8.524;2023-08-12T16:27:59;8.98;;;6.30;;
12222;SDS011;6174;49.058;8.524;2023-08-12T16:30:26;6.80;;;6.13;;
12222;SDS011;6174;49.058;8.524;2023-08-12T16:32:54;5.80;;;5.30;;
12222;SDS011;6174;49.058;8.524;2023-08-12T16:35:21;7.03;;;6.05;;
12222;SDS011;6174;49.058;8.524;2023-08-12T16:37:50;7.22;;;6.50;;
12222;SDS011;6174;49.058;8.524;2023-08-12T16:40:18;6.63;;;5.30;;
12222;SDS011;6174;49.058;8.524;2023-08-12T16:42:45;5.70;;;5.20;;
12222;SDS011;6174;49.058;8.524;2023-08-12T16:45:14;5.13;;;4.72;;
12222;SDS011;6174;49.058;8.524;2023-08-12T16:47:57;5.07;;;4.57;;
12222;SDS011;6174;49.058;8.524;2023-08-12T18:05:32;4.57;;;4.22;;
12222;SDS011;6174;49.058;8.524;2023-08-12T18:09:20;5.55;;;4.45;;
12222;SDS011;6174;49.058;8.524;2023-08-12T18:11:31;5.82;;;4.15;;
12222;SDS011;6174;49.058;8.524;2023-08-12T18:13:58;5.13;;;4.35;;
12222;SDS011;6174;49.058;8.524;2023-08-12T18:16:25;4.78;;;4.38;;
12222;SDS011;6174;49.058;8.524;2023-08-12T18:18:52;4.75;;;4.15;;
12222;SDS011;6174;49.058;8.524;2023-08-12T18:21:20;4.57;;;4.18;;
12222;SDS011;6174;49.058;8.524;2023-08-12T18:23:49;4.13;;;3.83;;
12222;SDS011;6174;49.058;8.524;2023-08-12T18:26:16;4.95;;;3.78;;
12222;SDS011;6174;49.058;8.524;2023-08-12T18:28:43;5.22;;;4.72;;
12222;SDS011;6174;49.058;8.524;2023-08-12T18:31:10;4.65;;;4.35;;
12222;SDS011;6174;49.058;8.524;2023-08-12T18:33:37;4.75;;;4.18;;
12222;SDS011;6174;49.058;8.524;2023-08-12T18:36:04;6.05;;;4.75;;
12222;SDS011;6174;49.058;8.524;2023-08-12T18:38:32;4.45;;;4.10;;
12222;SDS011;6174;49.058;8.524;2023-08-12T18:40:59;4.18;;;3.63;;
12222;SDS011;6174;49.058;8.524;2023-08-12T18:43:26;5.30;;;4.25;;
12222;SDS011;6174;49.058;8.524;2023-08-12T18:45:53;5.43;;;4.38;;
12222;SDS011;6174;49.058;8.524;2023-08-12T18:48:19;6.63;;;4.90;;
12222;SDS011;6174;49.058;8.524;2023-08-12T18:50:47;5.33;;;4.67;;
12222;SDS011;6174;49.058;8.524;2023-08-12T18:53:13;5.40;;;4.90;;
12222;SDS011;6174;49.058;8.524;2023-08-12T18:55:42;5.10;;;4.70;;
12222;SDS011;6174;49.058;8.524;2023-08-12T18:58:09;4.93;;;4.27;;
12222;SDS011;6174;49.058;8.524;2023-08-12T19:00:36;5.23;;;4.73;;
12222;SDS011;6174;49.058;8.524;2023-08-12T19:03:03;7.30;;;4.80;;
12222;SDS011;6174;49.058;8.524;2023-08-12T19:05:30;5.67;;;5.17;;
12222;SDS011;6174;49.058;8.524;2023-08-12T19:07:57;5.67;;;5.10;;
12222;SDS011;6174;49.058;8.524;2023-08-12T19:13:01;6.07;;;5.47;;
12222;SDS011;6174;49.058;8.524;2023-08-12T19:15:28;6.33;;;4.80;;
12222;SDS011;6174;49.058;8.524;2023-08-12T19:17:54;5.37;;;4.87;;
12222;SDS011;6174;49.058;8.524;2023-08-12T19:20:21;5.73;;;5.17;;
12222;SDS011;6174;49.058;8.524;2023-08-12T19:22:48;5.77;;;4.97;;
12222;SDS011;6174;49.058;8.524;2023-08-12T19:25:15;5.80;;;5.30;;
12222;SDS011;6174;49.058;8.524;2023-08-12T19:27:42;7.97;;;5.67;;
12222;SDS011;6174;49.058;8.524;2023-08-12T19:30:11;6.00;;;5.27;;
12222;SDS011;6174;49.058;8.524;2023-08-12T19:32:46;5.23;;;4.73;;
12222;SDS011;6174;49.058;8.524;2023-08-12T19:35:13;5.97;;;5.47;;
12222;SDS011;6174;49.058;8.524;2023-08-12T19:37:40;5.20;;;4.80;;
12222;SDS011;6174;49.058;8.524;2023-08-12T19:40:08;7.97;;;5.70;;
12222;SDS011;6174;49.058;8.524;2023-08-12T19:42:35;6.27;;;5.67;;
12222;SDS011;6174;49.058;8.524;2023-08-12T19:45:02;5.60;;;5.07;;
12222;SDS011;6174;49.058;8.524;2023-08-12T19:47:39;5.53;;;4.80;;
12222;SDS011;6174;49.058;8.524;2023-08-12T19:50:07;5.57;;;4.73;;
12222;SDS011;6174;49.058;8.524;2023-08-12T19:52:35;5.33;;;4.33;;
12222;SDS011;6174;49.058;8.524;2023-08-12T19:55:03;5.37;;;4.33;;
12222;SDS011;6174;49.058;8.524;2023-08-12T19:57:31;4.87;;;4.37;;
12222;SDS011;6174;49.058;8.524;2023-08-12T19:59:58;5.50;;;4.40;;
12222;SDS011;6174;49.058;8.524;2023-08-12T20:02:25;4.90;;;4.40;;
12222;SDS011;6174;49.058;8.524;2023-08-12T20:04:53;6.63;;;4.50;;
12222;SDS011;6174;49.058;8.524;2023-08-12T20:07:20;4.90;;;3.87;;
12222;SDS011;6174;49.058;8.524;2023-08-12T20:09:47;5.17;;;4.30;;
12222;SDS011;6174;49.058;8.524;2023-08-12T20:12:13;6.33;;;4.73;;
12222;SDS011;6174;49.058;8.524;2023-08-12T20:14:40;4.90;;;4.37;;
12222;SDS011;6174;49.058;8.524;2023-08-12T20:17:07;6.23;;;4.57;;
12222;SDS011;6174;49.058;8.524;2023-08-12T20:19:34;5.13;;;4.37;;
12222;SDS011;6174;49.058;8.524;2023-08-12T20:22:02;5.10;;;4.20;;
12222;SDS011;6174;49.058;8.524;2023-08-12T20:24:29;4.67;;;4.20;;
12222;SDS011;6174;49.058;8.524;2023-08-12T20:26:56;4.93;;;4.17;;
12222;SDS011;6174;49.058;8.524;2023-08-12T20:29:22;5.03;;;4.40;;
12222;SDS011;6174;49.058;8.524;2023-08-12T20:31:49;4.67;;;4.23;;
12222;SDS011;6174;49.058;8.524;2023-08-12T20:34:16;5.70;;;4.33;;
12222;SDS011;6174;49.058;8.524;2023-08-12T20:36:43;4.60;;;4.20;;
12222;SDS011;6174;49.058;8.524;2023-08-12T20:39:11;4.60;;;4.17;;
12222;SDS011;6174;49.058;8.524;2023-08-12T20:41:38;6.03;;;4.30;;
12222;SDS011;6174;49.058;8.524;2023-08-12T20:44:05;5.30;;;4.40;;
12222;SDS011;6174;49.058;8.524;2023-08-12T20:46:32;7.00;;;4.50;;
12222;SDS011;6174;49.058;8.524;2023-08-12T20:48:58;4.63;;;4.23;;
12222;SDS011;6174;49.058;8.524;2023-08-12T20:51:25;5.03;;;4.40;;
12222;SDS011;6174;49.058;8.524;2023-08-12T20:53:52;4.70;;;4.30;;
12222;SDS011;6174;49.058;8.524;2023-08-12T20:56:20;5.63;;;4.20;;
12222;SDS011;6174;49.058;8.524;2023-08-12T20:58:47;5.00;;;4.60;;
12222;SDS011;6174;49.058;8.524;2023-08-12T21:01:14;5.40;;;4.40;;
12222;SDS011;6174;49.058;8.524;2023-08-12T21:03:41;5.30;;;4.57;;
12222;SDS011;6174;49.058;8.524;2023-08-12T21:06:08;4.90;;;3.93;;
12222;SDS011;6174;49.058;8.524;2023-08-12T21:08:35;4.67;;;4.00;;
12222;SDS011;6174;49.058;8.524;2023-08-12T21:11:02;5.07;;;4.00;;
12222;SDS011;6174;49.058;8.524;2023-08-12T21:13:30;4.93;;;4.40;;
12222;SDS011;6174;49.058;8.524;2023-08-12T21:15:57;4.57;;;4.20;;
12222;SDS011;6174;49.058;8.524;2023-08-12T21:18:23;4.30;;;3.90;;
12222;SDS011;6174;49.058;8.524;2023-08-12T21:20:50;6.90;;;4.10;;
12222;SDS011;6174;49.058;8.524;2023-08-12T21:23:17;6.13;;;4.10;;
12222;SDS011;6174;49.058;8.524;2023-08-12T21:25:45;4.60;;;3.73;;
12222;SDS011;6174;49.058;8.524;2023-08-12T21:28:12;4.73;;;4.10;;
12222;SDS011;6174;49.058;8.524;2023-08-12T21:30:40;4.27;;;3.87;;
12222;SDS011;6174;49.058;8.524;2023-08-12T21:33:22;4.50;;;3.90;;
